Airfield :
LOGIN :

Register | Disclaimer

   EN    FR    IT 

 










Legend :    VFR   Marginal VFR   IFR   Intensive IFR   Very Intensive IFR
Visi :
Ceiling :
>= 8 km
>= 3000ft
5 to 8 km
1000 to 3000 ft
1500m to 5 km
500 to 1000 ft
800 to 1500m
200 to 500 ft
< 800m
< 200 ft
Symbols :   Thunderstorms  Fog  Heavy snow  Heavy precipitations  Wind > 20 kt
SIGMETs :     Misc.  Thunderstorms  Icing  Turbulence  Mountain Waves  Volcanic Ashes






- Airport Elevation : 52 ft
- IATA code : RNN


EKRN - Bornholm Ronne

CURRENT METAR :
  • 241050Z AUTO 26019KT 8000 // OVC005/// 05/05 Q1017

EXPIRED METARs :
  • 241020Z AUTO 26021KT 5000 // OVC004/// 05/05 Q1017
  • 240950Z AUTO 25019KT 4600 // OVC003/// 05/05 Q1017
  • 240920Z AUTO 25020KT 3700 // OVC004/// 05/05 Q1018
  • 240850Z AUTO 25020KT 3500 // OVC003/// 05/05 Q1018
  • 240820Z AUTO 25021KT 5000 // OVC003/// 05/05 Q1018
  • 240750Z AUTO 26021KT 6000 // OVC003/// 05/05 Q1018

TAF TAF EKRN
Valid from the 24 at 09:00 until the 24 at 18:00 UTC


240833Z 2409/2418 26022KT 5000 BKN005
TEMPO 2409/2418 4000 -RADZ BR BKN002



MET'MAP, your aeronautical weather chart ! - Copyright ORBIFLY December 2007 - Disclaimer

ORBIFLY MET'MAP TEAM :

Programming & Development : Alexandra Zaïnal
Concept & original design : Baudouin d'Aumeries
Assistance for programming : Marc-Olivier Méhu
Technical & hardware support : Manuel Goepfert

Contact : metmap@orbifly.com




SOURCES & CREDITS :

   NOAA